Time;durP1;ratioP1;P1;durP2;ratioP2;P2;SDS_P1;SDS_P2;PMS_P1;PMS_P2;Temp;Humidity;BMP_temperature;BMP_pressure;BME280_temperature;BME280_humidity;BME280_pressure;Samples;Min_cycle;Max_cycle;Signal;HPM_P1;HPM_P2
2023/12/20 00:00:56;;;;;;;15.43;4.63;;;;;;;3.07;88.67;100801.78;5066856;28;20036;-69
2023/12/20 00:03:22;;;;;;;10.02;3.33;;;;;;;2.89;89.31;100795.91;5057175;28;20044;-70
2023/12/20 00:05:48;;;;;;;14.23;4.50;;;;;;;2.73;90.05;100790.84;5060851;28;20040;-69
2023/12/20 00:08:13;;;;;;;13.45;4.18;;;;;;;2.63;90.90;100785.38;5043653;28;20029;-69
2023/12/20 00:10:39;;;;;;;8.73;2.97;;;;;;;2.57;91.59;100780.56;5049846;28;20038;-69
2023/12/20 00:13:04;;;;;;;8.63;2.55;;;;;;;2.75;91.08;100776.13;5042814;28;20079;-69
2023/12/20 00:15:30;;;;;;;11.10;3.30;;;;;;;2.73;90.27;100777.97;5042501;28;20028;-69
2023/12/20 00:17:55;;;;;;;5.43;2.30;;;;;;;2.91;89.26;100781.22;5049866;28;20043;-69
2023/12/20 00:20:20;;;;;;;4.45;1.58;;;;;;;3.11;88.02;100770.59;5048507;28;20036;-69
2023/12/20 00:22:46;;;;;;;6.25;1.20;;;;;;;3.36;87.18;100767.41;5061901;28;20531;-69
2023/12/20 00:25:11;;;;;;;5.10;0.80;;;;;;;3.57;86.35;100763.56;5064337;28;20493;-69
2023/12/20 00:27:37;;;;;;;3.28;0.68;;;;;;;3.70;85.84;100762.81;5062537;28;20037;-69
2023/12/20 00:30:03;;;;;;;3.75;0.77;;;;;;;3.66;85.75;100763.00;5062887;28;20669;-69
2023/12/20 00:32:28;;;;;;;3.53;0.65;;;;;;;3.64;85.62;100766.59;5040557;28;20441;-69
2023/12/20 00:34:54;;;;;;;5.90;1.08;;;;;;;3.67;85.95;100763.81;5039819;28;20053;-70
2023/12/20 00:37:19;;;;;;;3.40;0.63;;;;;;;3.65;86.17;100761.34;5041678;28;20123;-70
2023/12/20 00:39:45;;;;;;;4.25;1.58;;;;;;;3.51;85.92;100769.06;5042601;28;20376;-69
2023/12/20 00:42:10;;;;;;;4.57;1.30;;;;;;;3.49;86.49;100764.94;5054419;28;20038;-70
2023/12/20 00:44:36;;;;;;;2.20;0.80;;;;;;;3.47;86.74;100761.63;5053405;28;20122;-69
2023/12/20 00:47:01;;;;;;;5.25;1.42;;;;;;;3.33;87.00;100762.44;5045910;28;20032;-69
2023/12/20 00:49:27;;;;;;;6.85;1.48;;;;;;;3.11;88.21;100760.31;5040927;28;20044;-70
2023/12/20 00:51:52;;;;;;;2.50;0.70;;;;;;;3.26;87.85;100762.00;5039554;28;20117;-70
2023/12/20 00:54:18;;;;;;;4.25;0.95;;;;;;;3.48;87.14;100752.97;5038247;28;21386;-70
2023/12/20 00:56:43;;;;;;;3.40;0.50;;;;;;;3.59;86.79;100751.41;5040874;28;20036;-70
2023/12/20 00:59:09;;;;;;;3.20;0.80;;;;;;;3.59;87.09;100753.97;5045896;28;20086;-70
2023/12/20 01:01:34;;;;;;;3.58;0.88;;;;;;;3.58;86.72;100749.75;5055629;28;20399;-69
2023/12/20 01:04:00;;;;;;;5.25;0.73;;;;;;;3.54;87.07;100743.13;5046417;28;21292;-68
2023/12/20 01:06:25;;;;;;;3.53;0.80;;;;;;;3.47;87.50;100741.84;5041629;28;20060;-70
2023/12/20 01:08:51;;;;;;;2.55;0.52;;;;;;;3.44;87.89;100739.44;5028817;28;20029;-69
2023/12/20 01:11:16;;;;;;;2.60;0.60;;;;;;;3.47;87.89;100726.38;5047258;28;20376;-69
2023/12/20 01:13:42;;;;;;;3.28;0.80;;;;;;;3.46;87.86;100727.28;5044716;28;20594;-69
2023/12/20 01:16:11;;;;;;;2.70;0.60;;;;;;;3.52;86.40;100719.19;5049763;28;20482;-70
2023/12/20 01:18:36;;;;;;;5.20;0.77;;;;;;;3.53;86.21;100720.03;5045980;28;20097;-70
2023/12/20 01:21:05;;;;;;;4.72;0.70;;;;;;;3.59;85.92;100719.66;5038465;28;20761;-69
2023/12/20 01:23:31;;;;;;;2.97;0.43;;;;;;;3.62;85.06;100712.56;5039751;28;20044;-69
2023/12/20 01:25:59;;;;;;;2.95;0.60;;;;;;;3.65;85.22;100709.81;5041089;28;20078;-69
2023/12/20 01:28:25;;;;;;;4.07;0.40;;;;;;;3.70;85.50;100712.09;5041727;28;20446;-70
2023/12/20 01:30:50;;;;;;;4.22;0.70;;;;;;;3.68;85.22;100713.94;5051229;28;20032;-69
2023/12/20 01:33:16;;;;;;;1.88;0.70;;;;;;;3.75;84.97;100709.25;5051181;28;20569;-70
2023/12/20 01:35:41;;;;;;;2.35;0.60;;;;;;;3.75;84.96;100709.25;5040482;28;20057;-70
2023/12/20 01:38:06;;;;;;;0.98;0.38;;;;;;;3.76;85.51;100705.75;5043996;28;20491;-69
2023/12/20 01:40:32;;;;;;;1.63;0.52;;;;;;;3.70;86.03;100706.13;5035468;28;20041;-69
2023/12/20 01:43:08;;;;;;;2.85;0.60;;;;;;;3.65;85.80;100699.50;5039826;28;20696;-70
2023/12/20 01:45:34;;;;;;;4.07;0.65;;;;;;;3.59;86.36;100699.88;5043537;28;20227;-70
2023/12/20 01:48:02;;;;;;;6.20;0.75;;;;;;;3.51;86.76;100693.53;5044935;28;20069;-70
2023/12/20 01:50:28;;;;;;;1.77;0.73;;;;;;;3.45;87.16;100693.91;5048152;28;20032;-69
2023/12/20 01:52:57;;;;;;;3.75;0.85;;;;;;;3.41;87.54;100684.69;5021936;28;20039;-70
2023/12/20 01:55:25;;;;;;;1.85;0.50;;;;;;;3.39;87.03;100683.97;5041025;28;20028;-70
2023/12/20 01:57:51;;;;;;;2.90;0.60;;;;;;;3.40;87.53;100683.06;5040486;28;20340;-70
2023/12/20 02:00:18;;;;;;;3.65;0.70;;;;;;;3.38;87.08;100685.72;5045797;28;20064;-70
2023/12/20 02:02:45;;;;;;;2.55;1.05;;;;;;;3.37;87.26;100678.91;5057135;28;20028;-70
2023/12/20 02:05:11;;;;;;;4.53;0.80;;;;;;;3.36;87.48;100679.84;5062135;28;20073;-70
2023/12/20 02:07:36;;;;;;;2.17;0.70;;;;;;;3.39;86.97;100676.25;5059027;28;20136;-69
2023/12/20 02:10:04;;;;;;;2.92;0.60;;;;;;;3.40;86.83;100668.44;5050415;28;20119;-70
2023/12/20 02:12:29;;;;;;;10.50;1.00;;;;;;;3.40;87.05;100668.44;5062167;28;20037;-70
2023/12/20 02:14:55;;;;;;;7.07;0.98;;;;;;;3.36;86.94;100664.38;5067299;28;20399;-71
2023/12/20 02:17:20;;;;;;;2.25;0.60;;;;;;;3.30;87.52;100663.03;5064533;28;20038;-70
2023/12/20 02:19:46;;;;;;;4.18;0.70;;;;;;;3.25;87.68;100659.91;5065927;28;20032;-69
2023/12/20 02:22:12;;;;;;;3.47;0.88;;;;;;;3.22;87.78;100665.25;5061280;28;20924;-69
2023/12/20 02:24:38;;;;;;;3.05;0.80;;;;;;;3.22;87.53;100664.41;5066083;28;20078;-70
2023/12/20 02:27:06;;;;;;;3.38;0.90;;;;;;;3.22;87.96;100656.69;5069601;28;20479;-70
2023/12/20 02:29:33;;;;;;;3.72;0.80;;;;;;;3.24;87.76;100655.69;5066973;28;20478;-69
2023/12/20 02:31:58;;;;;;;5.18;0.90;;;;;;;3.24;87.33;100654.84;5059543;28;20138;-69
2023/12/20 02:34:24;;;;;;;4.32;1.00;;;;;;;3.26;87.06;100648.69;5056487;28;20131;-69
2023/12/20 02:36:50;;;;;;;3.50;0.90;;;;;;;3.26;86.62;100640.13;5061027;28;20496;-70
2023/12/20 02:39:15;;;;;;;3.22;0.68;;;;;;;3.29;86.55;100634.78;5066314;28;20171;-70
2023/12/20 02:41:41;;;;;;;4.63;0.60;;;;;;;3.29;86.77;100632.22;5062353;28;20041;-70
2023/12/20 02:44:06;;;;;;;6.75;0.85;;;;;;;3.28;86.47;100630.56;5061773;28;20085;-70
2023/12/20 02:46:31;;;;;;;5.22;0.55;;;;;;;3.29;86.89;100625.31;5064729;28;20036;-70
2023/12/20 02:48:57;;;;;;;2.90;1.02;;;;;;;3.32;86.28;100627.69;5064671;28;20036;-69
2023/12/20 02:51:22;;;;;;;1.10;0.50;;;;;;;3.30;86.90;100623.56;5063391;28;20051;-69
2023/12/20 02:53:48;;;;;;;2.88;0.68;;;;;;;3.25;86.59;100623.84;5068563;28;20102;-70
2023/12/20 02:56:14;;;;;;;2.78;0.75;;;;;;;3.23;86.57;100620.53;5065481;28;20029;-69
2023/12/20 02:58:40;;;;;;;6.28;0.60;;;;;;;3.26;86.38;100617.78;5063269;28;20036;-69
2023/12/20 03:01:05;;;;;;;1.98;0.70;;;;;;;3.31;85.97;100614.91;5058555;28;20025;-70
2023/12/20 03:03:31;;;;;;;4.75;0.57;;;;;;;3.34;85.96;100604.41;5057985;28;20024;-70
2023/12/20 03:05:57;;;;;;;3.85;0.40;;;;;;;3.36;84.79;100610.28;5061230;28;20028;-70
2023/12/20 03:08:22;;;;;;;3.13;0.80;;;;;;;3.39;84.80;100604.94;5066988;28;20051;-69
2023/12/20 03:10:48;;;;;;;2.08;0.60;;;;;;;3.33;84.78;100601.00;5063881;28;20055;-70
2023/12/20 03:13:14;;;;;;;3.03;0.85;;;;;;;3.16;85.37;100601.25;5061498;28;20396;-70
2023/12/20 03:15:40;;;;;;;6.47;0.63;;;;;;;3.14;86.25;100595.34;5061537;28;20438;-69
2023/12/20 03:18:06;;;;;;;5.57;1.08;;;;;;;3.20;86.30;100589.00;5071180;28;20037;-70
2023/12/20 03:20:34;;;;;;;5.65;0.70;;;;;;;3.18;86.00;100583.13;5069935;28;20078;-70
2023/12/20 03:23:02;;;;;;;3.50;0.75;;;;;;;3.16;85.57;100590.13;5062728;28;20033;-70
2023/12/20 03:25:28;;;;;;;6.18;1.15;;;;;;;2.84;86.19;100590.31;5071789;28;20036;-69
2023/12/20 03:27:53;;;;;;;6.05;2.00;;;;;;;2.54;87.48;100584.44;5072207;28;20032;-70
2023/12/20 03:30:19;;;;;;;1.90;0.57;;;;;;;2.59;87.88;100592.69;5034973;28;20036;-70
2023/12/20 03:32:45;;;;;;;3.47;1.02;;;;;;;2.81;87.01;100587.94;5069491;28;20086;-70
2023/12/20 03:35:11;;;;;;;2.33;0.90;;;;;;;2.83;86.97;100585.28;5052745;28;20140;-69
2023/12/20 03:37:36;;;;;;;2.85;0.73;;;;;;;2.87;86.89;100582.41;5068253;28;20036;-70
2023/12/20 03:40:02;;;;;;;2.20;0.47;;;;;;;2.88;86.16;100585.81;5050136;28;20052;-69
2023/12/20 03:42:28;;;;;;;3.50;0.98;;;;;;;2.82;86.48;100589.59;5067400;28;20107;-70
2023/12/20 03:44:53;;;;;;;1.75;0.60;;;;;;;2.79;86.71;100578.66;5068131;28;20123;-69
2023/12/20 03:47:19;;;;;;;1.25;0.40;;;;;;;2.78;86.62;100588.13;5068998;28;20047;-69
2023/12/20 03:49:44;;;;;;;1.98;0.68;;;;;;;2.79;87.05;100581.22;5069113;28;20029;-69
2023/12/20 03:52:10;;;;;;;4.40;0.50;;;;;;;2.77;87.64;100576.19;5067682;28;20035;-70
2023/12/20 03:54:35;;;;;;;3.17;0.57;;;;;;;2.76;88.04;100576.28;5043967;28;20128;-70
2023/12/20 03:57:01;;;;;;;4.47;0.60;;;;;;;2.70;87.99;100566.34;5069426;28;20384;-70
2023/12/20 03:59:26;;;;;;;3.90;0.82;;;;;;;2.62;88.86;100562.47;5065626;28;20074;-70
2023/12/20 04:01:52;;;;;;;3.47;0.40;;;;;;;2.59;88.73;100561.84;5053485;28;20115;-69
2023/12/20 04:04:17;;;;;;;5.68;0.68;;;;;;;2.59;88.47;100557.50;5053302;28;20053;-70
2023/12/20 04:06:43;;;;;;;7.18;0.73;;;;;;;2.60;87.64;100548.06;5045142;28;20560;-70
2023/12/20 04:09:12;;;;;;;4.30;0.70;;;;;;;2.60;87.16;100548.88;5067223;28;20040;-70
2023/12/20 04:11:37;;;;;;;3.40;1.58;;;;;;;2.52;86.93;100551.06;5065285;28;20043;-69
2023/12/20 04:14:04;;;;;;;6.25;0.95;;;;;;;2.39;87.85;100546.75;5069117;28;20036;-70
2023/12/20 04:16:30;;;;;;;3.08;0.75;;;;;;;2.42;88.22;100544.81;5068485;28;20371;-70
2023/12/20 04:18:55;;;;;;;4.43;0.70;;;;;;;2.57;87.78;100549.06;5069935;28;20017;-69
2023/12/20 04:21:21;;;;;;;1.70;0.47;;;;;;;2.67;87.29;100546.78;5069091;28;20540;-69
2023/12/20 04:23:46;;;;;;;2.95;0.68;;;;;;;2.71;87.24;100535.38;5067823;28;20020;-70
2023/12/20 04:26:12;;;;;;;3.70;0.77;;;;;;;2.69;87.43;100542.38;5067861;28;20059;-70
2023/12/20 04:28:37;;;;;;;4.43;0.47;;;;;;;2.71;87.64;100530.22;5064568;28;20311;-69
2023/12/20 04:31:03;;;;;;;6.72;0.82;;;;;;;2.73;87.07;100525.81;5066883;28;20032;-69
2023/12/20 04:33:28;;;;;;;2.35;0.68;;;;;;;2.71;86.81;100517.38;5061829;28;20053;-69
2023/12/20 04:35:54;;;;;;;2.72;0.50;;;;;;;2.69;87.15;100521.78;5059008;28;20036;-69
2023/12/20 04:38:19;;;;;;;13.70;1.67;;;;;;;2.66;86.91;100514.25;5065061;28;20031;-70
2023/12/20 04:40:45;;;;;;;8.32;1.67;;;;;;;2.48;87.34;100513.59;5059295;28;20040;-70
2023/12/20 04:43:10;;;;;;;11.35;2.17;;;;;;;2.27;88.09;100510.56;5061894;28;20032;-70
2023/12/20 04:45:36;;;;;;;3.35;1.13;;;;;;;2.30;88.43;100507.00;5066763;28;20093;-69
2023/12/20 04:48:02;;;;;;;10.40;1.02;;;;;;;2.43;88.65;100505.31;5068259;28;20032;-72
2023/12/20 04:50:28;;;;;;;2.92;0.75;;;;;;;2.52;87.82;100503.94;5065051;28;20036;-69
2023/12/20 04:52:53;;;;;;;3.15;1.30;;;;;;;2.51;87.82;100502.31;5066384;28;20029;-70
2023/12/20 04:55:19;;;;;;;4.63;1.10;;;;;;;2.46;88.15;100500.00;5062565;28;20399;-70
2023/12/20 04:57:44;;;;;;;2.17;1.00;;;;;;;2.43;88.13;100489.91;5075167;28;20029;-69
2023/12/20 05:00:10;;;;;;;3.55;0.50;;;;;;;2.45;87.59;100482.91;5052745;28;20123;-70
2023/12/20 05:02:36;;;;;;;4.63;1.35;;;;;;;2.29;87.92;100483.03;5046217;28;20032;-70
2023/12/20 05:05:02;;;;;;;4.97;1.50;;;;;;;1.94;89.41;100472.25;5058433;28;20028;-70
2023/12/20 05:07:27;;;;;;;5.00;1.20;;;;;;;1.73;90.85;100482.94;5068988;28;20040;-70
2023/12/20 05:09:53;;;;;;;3.25;0.90;;;;;;;1.85;90.80;100484.81;5062943;28;20033;-69
2023/12/20 05:12:19;;;;;;;2.45;0.65;;;;;;;2.09;89.86;100474.84;5066227;28;20127;-69
2023/12/20 05:14:45;;;;;;;5.78;0.57;;;;;;;2.33;88.50;100484.50;5068263;28;20036;-70
2023/12/20 05:17:11;;;;;;;2.83;0.50;;;;;;;2.46;87.92;100489.72;5064879;28;20045;-69
2023/12/20 05:19:36;;;;;;;2.42;0.77;;;;;;;2.51;87.68;100489.44;5068122;28;20578;-70
2023/12/20 05:22:02;;;;;;;2.78;0.43;;;;;;;2.48;87.36;100482.75;5067768;28;20020;-76
2023/12/20 05:24:28;;;;;;;1.27;0.52;;;;;;;2.50;87.39;100480.06;5061999;28;20036;-69
2023/12/20 05:26:53;;;;;;;2.40;0.55;;;;;;;2.42;87.89;100487.41;5066818;28;20086;-70
2023/12/20 05:29:19;;;;;;;3.55;0.77;;;;;;;2.37;88.25;100485.13;5067352;28;20119;-69
2023/12/20 05:31:44;;;;;;;2.72;0.43;;;;;;;2.32;88.05;100482.03;5060966;28;20028;-69
2023/12/20 05:34:10;;;;;;;4.63;0.65;;;;;;;2.26;88.87;100490.09;5066509;28;20072;-70
2023/12/20 05:36:36;;;;;;;2.13;0.77;;;;;;;2.26;88.80;100483.22;5059092;28;20080;-69
2023/12/20 05:39:03;;;;;;;9.85;0.77;;;;;;;2.32;88.18;100487.16;5057499;28;20040;-70
2023/12/20 05:41:29;;;;;;;2.55;0.60;;;;;;;2.33;88.06;100487.06;5058572;28;20037;-70
2023/12/20 05:43:55;;;;;;;1.77;0.60;;;;;;;2.45;87.83;100494.94;5057220;28;20031;-70
2023/12/20 05:46:21;;;;;;;3.28;0.70;;;;;;;2.52;87.42;100496.25;5057220;28;20044;-69
2023/12/20 05:48:47;;;;;;;4.57;0.98;;;;;;;2.58;87.56;100503.59;5057811;28;20032;-69
2023/12/20 05:51:13;;;;;;;2.05;0.82;;;;;;;2.59;86.86;100506.06;5040477;28;20047;-69
2023/12/20 05:53:38;;;;;;;2.05;0.50;;;;;;;2.56;87.28;100510.56;5059465;28;20475;-70
2023/12/20 05:56:04;;;;;;;4.78;0.80;;;;;;;2.57;87.23;100515.63;5059879;28;20090;-69
2023/12/20 05:58:29;;;;;;;4.60;1.27;;;;;;;2.56;87.40;100511.41;5059338;28;20028;-69
2023/12/20 06:00:55;;;;;;;6.13;0.95;;;;;;;2.56;87.21;100500.28;5066480;28;20115;-69
2023/12/20 06:03:20;;;;;;;1.38;0.65;;;;;;;2.60;87.05;100497.44;5058685;28;20119;-70
2023/12/20 06:05:46;;;;;;;2.90;0.50;;;;;;;2.64;86.78;100498.06;5059368;28;20124;-69
2023/12/20 06:08:12;;;;;;;2.05;0.65;;;;;;;2.70;86.62;100486.59;5043572;28;20832;-69
2023/12/20 06:10:37;;;;;;;1.00;0.40;;;;;;;2.72;86.50;100480.44;5059390;28;20040;-69
2023/12/20 06:13:04;;;;;;;3.25;0.57;;;;;;;2.81;85.81;100479.88;5059507;28;20028;-70
2023/12/20 06:15:30;;;;;;;4.30;0.52;;;;;;;2.98;83.95;100477.06;5064600;28;20119;-69
2023/12/20 06:17:55;;;;;;;2.03;0.57;;;;;;;3.05;84.19;100482.66;5072116;28;20107;-70
2023/12/20 06:20:21;;;;;;;1.58;0.50;;;;;;;3.06;84.19;100483.47;5069736;28;20101;-69
2023/12/20 06:22:46;;;;;;;5.65;0.82;;;;;;;3.10;84.36;100482.38;5072499;28;20028;-69
2023/12/20 06:25:12;;;;;;;8.40;1.17;;;;;;;3.14;83.80;100483.81;5070394;28;20025;-70
2023/12/20 06:27:37;;;;;;;4.68;1.00;;;;;;;3.14;84.50;100481.25;5072353;28;23211;-70
2023/12/20 06:30:03;;;;;;;4.68;0.88;;;;;;;3.11;84.22;100481.44;5061368;28;20043;-70
2023/12/20 06:32:29;;;;;;;4.55;0.82;;;;;;;3.07;84.75;100487.69;5064530;28;20034;-70
2023/12/20 06:34:54;;;;;;;2.70;0.65;;;;;;;3.01;85.19;100488.91;5066575;28;20491;-70
2023/12/20 06:37:20;;;;;;;6.93;1.40;;;;;;;2.91;85.72;100475.78;5058820;28;20024;-70
2023/12/20 06:39:46;;;;;;;3.90;1.23;;;;;;;2.84;86.24;100476.25;5059088;28;20048;-71
2023/12/20 06:42:12;;;;;;;4.45;0.80;;;;;;;2.86;85.95;100472.66;5061774;28;20086;-70
2023/12/20 06:44:38;;;;;;;3.53;0.75;;;;;;;2.96;85.61;100472.94;5080642;28;20025;-70
2023/12/20 06:47:04;;;;;;;3.22;0.60;;;;;;;3.00;85.32;100470.06;5075857;28;20067;-69
2023/12/20 06:49:29;;;;;;;4.93;0.50;;;;;;;3.04;84.66;100459.56;5079915;28;20056;-70
2023/12/20 06:51:55;;;;;;;4.07;0.75;;;;;;;3.05;84.63;100456.09;5081205;28;20036;-70
2023/12/20 06:54:20;;;;;;;6.93;1.25;;;;;;;3.07;84.37;100456.81;5078186;28;20509;-70
2023/12/20 06:56:46;;;;;;;3.15;0.75;;;;;;;3.07;84.42;100454.25;5083139;28;20025;-70
2023/12/20 06:59:11;;;;;;;5.18;0.88;;;;;;;3.04;84.85;100444.97;5079137;28;20058;-70
2023/12/20 07:01:37;;;;;;;1.98;0.70;;;;;;;3.02;84.61;100451.13;5067198;28;20033;-69
2023/12/20 07:04:03;;;;;;;7.30;1.30;;;;;;;3.02;84.90;100449.38;5068812;28;20036;-70
2023/12/20 07:06:28;;;;;;;1.95;0.77;;;;;;;3.06;85.84;100475.75;5047060;28;20396;-69
2023/12/20 07:08:54;;;;;;;1.80;0.82;;;;;;;3.12;85.80;100483.09;5073372;28;20044;-70
2023/12/20 07:11:19;;;;;;;9.50;1.00;;;;;;;3.17;85.27;100484.47;5068352;28;20032;-69
2023/12/20 07:13:45;;;;;;;3.90;1.27;;;;;;;3.22;84.83;100484.16;5071870;28;20028;-69
2023/12/20 07:16:10;;;;;;;2.53;0.73;;;;;;;3.15;84.68;100480.31;5077123;28;20042;-69
2023/12/20 07:18:36;;;;;;;4.75;0.82;;;;;;;3.06;85.74;100483.47;5066046;28;20032;-69
2023/12/20 07:21:01;;;;;;;7.50;0.80;;;;;;;3.06;85.79;100486.06;5064678;28;20021;-70
2023/12/20 07:23:27;;;;;;;3.05;0.68;;;;;;;3.10;85.94;100480.63;5082956;28;20127;-69
2023/12/20 07:25:52;;;;;;;6.00;0.60;;;;;;;3.19;85.80;100476.63;5079106;28;20035;-69
2023/12/20 07:28:18;;;;;;;6.25;0.70;;;;;;;3.25;85.83;100474.50;5067323;28;20071;-69
2023/12/20 07:30:43;;;;;;;9.90;1.00;;;;;;;3.38;85.52;100476.28;5065191;28;20036;-69
2023/12/20 07:33:09;;;;;;;6.38;0.50;;;;;;;3.47;84.30;100479.09;5066541;28;20039;-69
2023/12/20 07:35:35;;;;;;;1.80;0.60;;;;;;;3.56;83.97;100482.81;5063463;28;20758;-69
2023/12/20 07:38:00;;;;;;;6.20;0.93;;;;;;;3.62;83.77;100482.44;5063794;28;20112;-68
2023/12/20 07:40:26;;;;;;;4.72;0.95;;;;;;;3.55;84.10;100481.16;5081657;28;20036;-70
2023/12/20 07:42:51;;;;;;;4.05;0.98;;;;;;;3.44;84.46;100483.59;5074772;28;20036;-69
2023/12/20 07:45:16;;;;;;;3.25;0.95;;;;;;;3.36;84.88;100493.56;5070165;28;20029;-69
2023/12/20 07:47:42;;;;;;;4.05;0.52;;;;;;;3.34;84.67;100493.66;5064502;28;20024;-69
2023/12/20 07:50:07;;;;;;;2.30;0.57;;;;;;;3.39;84.43;100491.63;5068751;28;20060;-69
2023/12/20 07:52:33;;;;;;;2.10;0.50;;;;;;;3.52;83.81;100489.09;5070682;28;20028;-69
2023/12/20 07:54:58;;;;;;;1.60;0.60;;;;;;;3.59;83.52;100490.34;5063233;28;20136;-69
2023/12/20 07:57:24;;;;;;;1.80;0.50;;;;;;;3.62;83.60;100496.13;5064691;28;20050;-69
2023/12/20 07:59:49;;;;;;;5.68;0.90;;;;;;;3.63;83.48;100497.78;5069341;28;20094;-69
2023/12/20 08:02:15;;;;;;;3.40;0.85;;;;;;;3.64;83.36;100501.19;5051544;28;20448;-69
2023/12/20 08:04:40;;;;;;;2.17;0.90;;;;;;;3.71;83.24;100514.50;5061751;28;20033;-69
2023/12/20 08:07:07;;;;;;;3.85;1.05;;;;;;;3.76;82.80;100515.03;5061713;28;20025;-69
2023/12/20 08:09:33;;;;;;;6.70;1.38;;;;;;;3.80;82.92;100522.44;5043241;28;20357;-69
2023/12/20 08:11:59;;;;;;;4.20;1.23;;;;;;;3.79;83.07;100513.06;5061649;28;20032;-70
2023/12/20 08:14:25;;;;;;;2.72;1.25;;;;;;;3.82;82.86;100522.34;5061200;28;20052;-70
2023/12/20 08:16:51;;;;;;;2.88;1.00;;;;;;;3.88;82.51;100515.03;5061579;28;20029;-69
2023/12/20 08:19:16;;;;;;;5.47;1.20;;;;;;;3.90;82.76;100520.09;5061606;28;20048;-70
2023/12/20 08:21:42;;;;;;;3.00;0.60;;;;;;;3.88;82.33;100522.78;5066233;28;20107;-69
2023/12/20 08:24:08;;;;;;;2.75;0.88;;;;;;;3.82;82.58;100517.19;5070812;28;20033;-69
2023/12/20 08:26:34;;;;;;;8.07;2.05;;;;;;;3.75;82.64;100524.53;5068969;28;20077;-68
2023/12/20 08:28:59;;;;;;;8.13;2.35;;;;;;;3.82;82.65;100525.75;5072210;28;20032;-69
2023/12/20 08:31:25;;;;;;;4.32;1.35;;;;;;;3.87;82.08;100515.97;5066293;28;20040;-69
2023/12/20 08:33:52;;;;;;;3.30;0.93;;;;;;;3.89;82.50;100515.88;5075142;28;20044;-69
2023/12/20 08:36:21;;;;;;;2.38;0.82;;;;;;;3.93;82.49;100520.72;5059459;28;20029;-69
2023/12/20 08:38:47;;;;;;;7.07;1.20;;;;;;;4.03;82.68;100525.28;5056990;28;20481;-69
2023/12/20 08:41:12;;;;;;;4.75;1.50;;;;;;;4.14;81.71;100525.41;5047775;28;20086;-69
2023/12/20 08:43:40;;;;;;;9.35;1.10;;;;;;;4.24;81.75;100516.13;5064332;28;20460;-69
2023/12/20 08:46:05;;;;;;;4.68;1.75;;;;;;;4.36;81.31;100511.88;5065018;28;20028;-69
2023/12/20 08:48:31;;;;;;;4.75;1.85;;;;;;;4.47;81.25;100509.41;5069960;28;21447;-69
2023/12/20 08:50:56;;;;;;;7.28;1.52;;;;;;;4.58;82.00;100501.75;5069141;28;20048;-69
2023/12/20 08:53:22;;;;;;;4.85;1.38;;;;;;;4.66;82.11;100502.06;5070838;28;20063;-69
2023/12/20 08:55:47;;;;;;;4.35;1.30;;;;;;;4.72;82.78;100511.97;5070591;28;20399;-69
2023/12/20 08:58:13;;;;;;;5.32;1.67;;;;;;;4.80;82.53;100535.47;5065440;28;20181;-68
2023/12/20 09:00:39;;;;;;;5.20;1.70;;;;;;;4.86;82.54;100547.94;5073418;28;20131;-68
2023/12/20 09:03:04;;;;;;;7.85;2.33;;;;;;;4.88;82.29;100553.84;5058227;28;20116;-69
2023/12/20 09:05:30;;;;;;;8.13;2.67;;;;;;;4.85;82.52;100561.78;5068645;28;20091;-69
2023/12/20 09:07:56;;;;;;;7.68;2.50;;;;;;;4.80;81.90;100571.59;5059363;28;20039;-69
2023/12/20 09:10:24;;;;;;;4.32;1.27;;;;;;;4.78;81.20;100560.56;5067972;28;20044;-68
2023/12/20 09:12:51;;;;;;;4.60;1.65;;;;;;;4.69;81.30;100537.16;5069981;28;20029;-68
2023/12/20 09:15:16;;;;;;;5.00;1.10;;;;;;;4.68;80.56;100527.75;5045264;28;20059;-69
2023/12/20 09:17:42;;;;;;;7.07;1.42;;;;;;;4.68;80.68;100528.59;5063701;28;20032;-69
2023/12/20 09:20:08;;;;;;;6.05;1.33;;;;;;;4.79;80.90;100533.81;5072185;28;20036;-69
2023/12/20 09:22:34;;;;;;;6.72;1.52;;;;;;;4.93;80.76;100536.25;5073054;28;20064;-69
2023/12/20 09:24:59;;;;;;;3.33;1.15;;;;;;;5.06;80.19;100538.81;5068026;28;20215;-69
2023/12/20 09:27:25;;;;;;;3.30;1.13;;;;;;;5.11;79.86;100534.16;5065202;28;20075;-69
2023/12/20 09:29:50;;;;;;;8.05;1.45;;;;;;;5.16;80.73;100526.09;5069939;28;20032;-69
2023/12/20 09:32:16;;;;;;;10.90;1.73;;;;;;;5.30;80.09;100515.59;5067508;28;20048;-69
2023/12/20 09:34:41;;;;;;;6.70;1.42;;;;;;;5.48;80.18;100518.63;5065415;28;20044;-69
2023/12/20 09:37:07;;;;;;;7.15;1.48;;;;;;;5.60;80.31;100505.63;5064851;28;20036;-69
2023/12/20 09:39:33;;;;;;;6.32;1.70;;;;;;;5.72;79.85;100495.31;5059317;28;20040;-69
2023/12/20 09:42:04;;;;;;;5.95;1.70;;;;;;;5.80;80.97;100496.41;5067117;28;20056;-70
2023/12/20 09:44:31;;;;;;;4.97;1.30;;;;;;;5.87;81.26;100487.25;5065529;28;20360;-69
2023/12/20 09:46:57;;;;;;;5.20;1.60;;;;;;;5.87;79.70;100487.25;5069440;28;20475;-69
2023/12/20 09:49:23;;;;;;;4.78;2.20;;;;;;;5.79;79.06;100491.34;5062777;28;20124;-69
2023/12/20 09:51:53;;;;;;;6.32;2.30;;;;;;;5.73;78.97;100494.38;5062217;28;20060;-69
2023/12/20 09:54:21;;;;;;;5.28;2.17;;;;;;;5.66;79.78;100491.44;5066995;28;20036;-69
2023/12/20 09:56:47;;;;;;;8.23;2.67;;;;;;;5.66;80.46;100489.69;5059375;28;20031;-69
2023/12/20 09:59:13;;;;;;;5.60;2.50;;;;;;;5.71;80.87;100485.91;5064336;28;20025;-69
2023/12/20 10:01:42;;;;;;;8.77;3.42;;;;;;;5.67;81.88;100480.97;5062393;28;20545;-69
2023/12/20 10:04:12;;;;;;;13.27;3.58;;;;;;;5.60;82.38;100482.38;5064004;28;20033;-69
2023/12/20 10:06:42;;;;;;;6.28;2.95;;;;;;;5.53;81.84;100478.59;5068939;28;20120;-69
2023/12/20 10:09:08;;;;;;;5.50;2.00;;;;;;;5.51;81.83;100467.53;5065785;28;20029;-68
2023/12/20 10:11:38;;;;;;;5.65;2.00;;;;;;;5.50;81.99;100452.97;5070946;28;20032;-69
2023/12/20 10:14:04;;;;;;;7.78;2.85;;;;;;;5.53;82.96;100450.16;5065766;28;20043;-69
2023/12/20 10:16:30;;;;;;;7.22;2.65;;;;;;;5.57;83.28;100448.19;5066245;28;20399;-69
2023/12/20 10:18:56;;;;;;;13.13;2.67;;;;;;;5.59;82.36;100447.13;5067738;28;20391;-69
2023/12/20 10:21:26;;;;;;;8.15;3.42;;;;;;;5.60;81.89;100455.72;5068975;28;20028;-69
2023/12/20 10:23:55;;;;;;;5.10;2.05;;;;;;;5.68;82.43;100451.59;5066321;28;20090;-68
2023/12/20 10:26:26;;;;;;;8.95;2.95;;;;;;;5.79;82.73;100453.38;5060699;28;20028;-68
2023/12/20 10:28:53;;;;;;;7.22;3.13;;;;;;;5.89;82.27;100454.38;5065912;28;20029;-67
2023/12/20 10:31:33;;;;;;;6.80;2.85;;;;;;;5.85;82.40;100449.53;5066320;28;20028;-68
2023/12/20 10:34:00;;;;;;;8.30;3.28;;;;;;;5.76;81.69;100461.38;5066410;28;20056;-69
2023/12/20 10:36:28;;;;;;;9.38;2.75;;;;;;;5.60;82.88;100456.53;5069405;28;20070;-68
2023/12/20 10:38:55;;;;;;;8.02;2.95;;;;;;;5.62;81.89;100454.66;5065185;28;20105;-68
2023/12/20 10:41:24;;;;;;;5.55;1.98;;;;;;;5.67;82.02;100444.78;5068249;28;20039;-68
2023/12/20 10:43:52;;;;;;;5.57;2.83;;;;;;;5.67;80.89;100451.75;5077666;28;20046;-68
2023/12/20 10:46:19;;;;;;;5.70;1.98;;;;;;;5.64;80.98;100452.78;5068188;28;20487;-68
2023/12/20 10:48:45;;;;;;;5.60;2.58;;;;;;;5.64;80.61;100445.03;5075962;28;20529;-68
2023/12/20 10:51:11;;;;;;;6.43;2.08;;;;;;;5.68;81.25;100436.09;5071479;28;20032;-68
2023/12/20 10:53:40;;;;;;;10.75;3.13;;;;;;;5.73;81.33;100442.69;5074819;28;20032;-68
2023/12/20 10:56:07;;;;;;;4.90;1.85;;;;;;;5.76;80.96;100432.94;5075648;28;20055;-68
2023/12/20 10:58:35;;;;;;;5.35;2.55;;;;;;;5.80;81.34;100418.03;5072631;28;20116;-67
2023/12/20 11:01:05;;;;;;;6.50;2.42;;;;;;;5.84;81.26;100409.09;5071235;28;20437;-67
2023/12/20 11:03:34;;;;;;;4.93;1.75;;;;;;;5.89;80.98;100396.69;5072487;28;20124;-67
2023/12/20 11:06:25;;;;;;;6.68;1.70;;;;;;;6.02;81.06;100402.56;5072913;28;20086;-68
2023/12/20 11:09:28;;;;;;;9.55;2.20;;;;;;;6.06;79.87;100409.16;5071817;28;20124;-67
2023/12/20 11:12:01;;;;;;;5.47;1.77;;;;;;;5.99;80.31;100395.03;5074174;28;20389;-68
2023/12/20 11:14:39;;;;;;;5.65;2.22;;;;;;;6.02;80.15;100399.97;5066660;28;20060;-68
2023/12/20 11:17:09;;;;;;;4.93;2.05;;;;;;;6.07;80.05;100399.63;5072876;28;20494;-68
2023/12/20 11:20:03;;;;;;;3.75;1.90;;;;;;;6.10;80.47;100391.66;5067761;28;20108;-68
2023/12/20 11:22:33;;;;;;;10.82;2.63;;;;;;;6.18;80.40;100382.31;5072925;28;20040;-68
2023/12/20 11:25:04;;;;;;;7.03;2.30;;;;;;;6.24;81.10;100368.91;5077523;28;20421;-68
2023/12/20 11:27:30;;;;;;;6.70;3.25;;;;;;;6.29;82.39;100369.38;5073176;28;20475;-68
2023/12/20 11:29:58;;;;;;;9.38;3.55;;;;;;;6.39;82.57;100361.72;5074678;28;20083;-68